createdAt,value
2023-05-19T00:00:58.155Z,73.53
2023-05-19T00:01:58.187Z,73.81
2023-05-19T00:02:58.280Z,75.27
2023-05-19T00:03:58.173Z,73.32
2023-05-19T00:04:58.179Z,74.67
2023-05-19T00:06:00.015Z,72.29
2023-05-19T00:06:58.200Z,74.42
2023-05-19T00:07:58.255Z,72.66
2023-05-19T00:08:58.235Z,74.69
2023-05-19T00:09:58.214Z,73.62
2023-05-19T00:10:58.226Z,72.88
2023-05-19T00:11:58.280Z,72.78
2023-05-19T00:12:58.309Z,74.20
2023-05-19T00:13:58.372Z,73.98
2023-05-19T00:14:58.321Z,71.70
2023-05-19T00:15:58.388Z,70.80
2023-05-19T00:16:58.283Z,70.52
2023-05-19T00:17:58.419Z,71.91
2023-05-19T00:18:58.446Z,71.87
2023-05-19T00:19:58.405Z,71.49
2023-05-19T00:20:58.512Z,71.53
2023-05-19T00:21:58.471Z,72.04
2023-05-19T00:22:58.506Z,69.80
2023-05-19T00:23:58.620Z,71.05
2023-05-19T00:24:58.509Z,71.85
2023-05-19T00:25:58.561Z,72.23
2023-05-19T00:26:58.564Z,73.52
2023-05-19T00:27:58.543Z,74.25
2023-05-19T00:28:58.578Z,72.21
2023-05-19T00:29:58.584Z,71.18
2023-05-19T00:30:58.605Z,71.29
2023-05-19T00:31:58.657Z,68.99
2023-05-19T00:32:58.710Z,72.49
2023-05-19T00:33:58.630Z,71.92
2023-05-19T00:34:58.669Z,72.11
2023-05-19T00:35:58.700Z,73.08
2023-05-19T00:36:58.698Z,72.71
2023-05-19T00:37:58.725Z,70.76
2023-05-19T00:38:58.725Z,70.96
2023-05-19T00:39:58.753Z,73.07
2023-05-19T00:40:58.756Z,71.33
2023-05-19T00:41:58.754Z,70.79
2023-05-19T00:42:58.793Z,70.10
2023-05-19T00:43:58.785Z,71.27
2023-05-19T00:44:58.877Z,72.17
2023-05-19T00:45:58.841Z,71.07
2023-05-19T00:46:58.923Z,72.54
2023-05-19T00:47:58.897Z,71.53
2023-05-19T00:48:58.893Z,70.90
2023-05-19T00:49:58.874Z,69.81
2023-05-19T00:50:58.929Z,70.48
2023-05-19T00:51:58.922Z,72.88
2023-05-19T00:52:58.929Z,71.76
2023-05-19T00:53:58.950Z,70.47
2023-05-19T00:54:58.957Z,71.01
2023-05-19T00:55:58.950Z,69.70
2023-05-19T00:56:58.964Z,69.05
2023-05-19T00:57:58.967Z,69.51
2023-05-19T00:58:58.969Z,70.17
2023-05-19T00:59:59.070Z,71.77
2023-05-19T01:00:59.013Z,73.06
2023-05-19T01:01:59.017Z,72.27
2023-05-19T01:02:59.109Z,70.70
2023-05-19T01:03:59.315Z,74.44
2023-05-19T01:04:59.074Z,69.85
2023-05-19T01:05:59.127Z,70.36
2023-05-19T01:06:59.084Z,71.18
2023-05-19T01:07:59.121Z,71.02
2023-05-19T01:08:59.135Z,71.90
2023-05-19T01:09:59.231Z,69.72
2023-05-19T01:10:59.264Z,69.52
2023-05-19T01:11:59.340Z,72.40
2023-05-19T01:12:59.331Z,69.48
2023-05-19T01:13:59.381Z,68.71
2023-05-19T01:14:59.473Z,70.53
2023-05-19T01:15:59.485Z,67.48
2023-05-19T01:16:59.495Z,68.20
2023-05-19T01:17:59.632Z,71.29
2023-05-19T01:18:59.626Z,68.29
2023-05-19T01:19:59.649Z,69.74
2023-05-19T01:20:59.666Z,71.86
2023-05-19T01:21:59.723Z,71.48
2023-05-19T01:22:59.744Z,68.07
2023-05-19T01:23:59.766Z,70.53
2023-05-19T01:24:59.774Z,70.73
2023-05-19T01:25:59.783Z,70.21
2023-05-19T01:26:59.874Z,71.23
2023-05-19T01:27:59.858Z,69.74
2023-05-19T01:28:59.852Z,71.17
2023-05-19T01:29:59.876Z,70.73
2023-05-19T01:30:59.897Z,71.47
2023-05-19T01:31:59.969Z,71.72
2023-05-19T01:33:00.024Z,70.31
2023-05-19T01:33:59.991Z,70.80
2023-05-19T01:35:00.034Z,67.19
2023-05-19T01:36:00.024Z,69.09
2023-05-19T01:37:00.058Z,66.13
2023-05-19T01:38:00.065Z,67.05
2023-05-19T01:39:00.124Z,64.46
2023-05-19T01:40:00.159Z,67.55
2023-05-19T01:41:00.134Z,67.96
2023-05-19T01:42:00.138Z,68.30
2023-05-19T01:43:00.230Z,69.27
2023-05-19T01:44:00.189Z,69.09
2023-05-19T01:45:00.227Z,69.86
2023-05-19T01:46:00.260Z,67.47
2023-05-19T01:47:00.226Z,71.01
2023-05-19T01:48:00.283Z,66.97
2023-05-19T01:49:00.320Z,69.88
2023-05-19T01:50:00.315Z,68.90
2023-05-19T01:51:00.338Z,71.11
2023-05-19T01:52:00.351Z,67.19
2023-05-19T01:53:00.410Z,66.89
2023-05-19T01:54:00.389Z,66.32
2023-05-19T01:55:00.413Z,65.86
2023-05-19T01:56:00.449Z,68.16
2023-05-19T01:57:00.456Z,65.47
2023-05-19T01:58:00.533Z,65.90
2023-05-19T01:59:00.617Z,68.20
2023-05-19T02:00:00.531Z,69.13
2023-05-19T02:01:00.672Z,68.17
2023-05-19T02:02:00.630Z,67.60
2023-05-19T02:03:00.724Z,68.27
2023-05-19T02:04:00.771Z,64.25
2023-05-19T02:05:00.754Z,70.99
2023-05-19T02:06:00.787Z,70.80
2023-05-19T02:07:00.860Z,68.42
2023-05-19T02:08:00.924Z,68.61
2023-05-19T02:09:00.985Z,68.45
2023-05-19T02:10:00.960Z,67.32
2023-05-19T02:11:00.967Z,66.32
2023-05-19T02:12:01.009Z,65.93
2023-05-19T02:13:01.002Z,65.73
2023-05-19T02:14:01.053Z,67.22
2023-05-19T02:15:01.048Z,67.02
2023-05-19T02:16:01.171Z,69.58
2023-05-19T02:17:01.138Z,68.46
2023-05-19T02:18:01.181Z,69.13
2023-05-19T02:19:01.296Z,63.89
2023-05-19T02:20:01.232Z,65.46
2023-05-19T02:21:01.927Z,67.51
2023-05-19T02:22:01.289Z,67.95
2023-05-19T02:23:01.298Z,66.59
2023-05-19T02:24:01.358Z,68.28
2023-05-19T02:25:01.438Z,70.46
2023-05-19T02:26:01.401Z,67.16
2023-05-19T02:27:01.400Z,72.13
2023-05-19T02:28:01.443Z,68.44
2023-05-19T02:29:01.428Z,68.21
2023-05-19T02:30:01.448Z,68.43
2023-05-19T02:31:01.510Z,68.68
2023-05-19T02:32:01.538Z,64.23
2023-05-19T02:33:01.559Z,68.74
2023-05-19T02:34:02.438Z,66.76
2023-05-19T02:35:01.569Z,71.08
2023-05-19T02:36:01.572Z,67.15
2023-05-19T02:37:01.642Z,65.61
2023-05-19T02:38:01.621Z,65.88
2023-05-19T02:39:01.653Z,67.83
2023-05-19T02:40:01.692Z,67.92
2023-05-19T02:41:01.728Z,67.72
2023-05-19T02:42:01.737Z,68.77
2023-05-19T02:43:01.728Z,69.36
2023-05-19T02:44:01.781Z,67.82
2023-05-19T02:45:01.816Z,67.18
2023-05-19T02:46:01.835Z,67.68
2023-05-19T02:47:01.844Z,69.56
2023-05-19T02:48:01.879Z,68.27
2023-05-19T02:49:01.903Z,66.19
2023-05-19T02:50:01.944Z,69.26
2023-05-19T02:51:01.972Z,66.90
2023-05-19T02:52:02.063Z,67.97
2023-05-19T02:53:02.070Z,67.86
2023-05-19T02:54:02.088Z,66.59
2023-05-19T02:55:02.101Z,67.60
2023-05-19T02:56:02.130Z,70.84
2023-05-19T02:57:02.209Z,67.87
2023-05-19T02:58:02.258Z,67.40
2023-05-19T02:59:02.257Z,67.27
2023-05-19T03:00:02.320Z,66.20
2023-05-19T03:01:02.383Z,67.09
2023-05-19T03:02:02.506Z,65.47
2023-05-19T03:03:02.536Z,69.27
2023-05-19T03:04:02.523Z,68.09
2023-05-19T03:05:02.417Z,66.99
2023-05-19T03:06:02.486Z,67.08
2023-05-19T03:07:02.510Z,65.06
2023-05-19T03:08:02.587Z,66.49
2023-05-19T03:09:02.588Z,66.73
2023-05-19T03:10:02.686Z,68.48
2023-05-19T03:11:02.679Z,65.56
2023-05-19T03:12:02.702Z,64.00
2023-05-19T03:13:02.712Z,65.59
2023-05-19T03:14:02.719Z,64.28
2023-05-19T03:15:02.812Z,64.48
2023-05-19T03:16:02.820Z,68.53
2023-05-19T03:17:02.919Z,66.51
2023-05-19T03:18:02.929Z,67.40
2023-05-19T03:19:02.965Z,67.96
2023-05-19T03:20:02.969Z,65.43
2023-05-19T03:21:03.031Z,66.86
2023-05-19T03:22:03.024Z,65.98
2023-05-19T03:23:03.058Z,69.23
2023-05-19T03:24:03.105Z,67.04
2023-05-19T03:25:03.171Z,66.09
2023-05-19T03:26:03.195Z,66.94
2023-05-19T03:27:03.170Z,65.53
2023-05-19T03:28:03.266Z,64.80
2023-05-19T03:29:03.218Z,65.41
2023-05-19T03:30:04.953Z,66.77
2023-05-19T03:31:03.261Z,67.04
2023-05-19T03:32:03.309Z,65.06
2023-05-19T03:33:03.377Z,65.64
2023-05-19T03:34:03.269Z,64.37
2023-05-19T03:35:03.207Z,63.89
2023-05-19T03:36:03.229Z,64.23
2023-05-19T03:37:03.237Z,63.22
2023-05-19T03:38:03.974Z,63.93
2023-05-19T03:39:03.211Z,65.10
2023-05-19T03:40:03.217Z,64.78
2023-05-19T03:41:03.221Z,64.37
2023-05-19T03:42:03.335Z,63.11
2023-05-19T03:43:03.169Z,64.18
2023-05-19T03:44:03.179Z,64.85
2023-05-19T03:45:03.174Z,65.49
2023-05-19T03:46:03.181Z,63.66
2023-05-19T03:47:03.159Z,63.06
2023-05-19T03:48:03.183Z,64.13
2023-05-19T03:49:03.153Z,64.17
2023-05-19T03:50:03.141Z,63.61
2023-05-19T03:51:03.153Z,61.86
2023-05-19T03:52:03.113Z,63.84
2023-05-19T03:53:03.121Z,62.61
2023-05-19T03:54:03.108Z,62.15
2023-05-19T03:55:03.094Z,60.94
2023-05-19T03:56:03.083Z,62.45
2023-05-19T03:57:03.090Z,62.07
2023-05-19T03:58:03.162Z,60.39
2023-05-19T03:59:03.071Z,60.21
2023-05-19T04:00:03.072Z,60.31
2023-05-19T04:01:03.050Z,62.85
2023-05-19T04:02:03.082Z,61.84
2023-05-19T04:03:03.171Z,62.92
2023-05-19T04:04:03.073Z,60.73
2023-05-19T04:05:03.052Z,59.41
2023-05-19T04:06:03.018Z,57.87
2023-05-19T04:07:03.025Z,56.46
2023-05-19T04:08:02.989Z,53.82
2023-05-19T04:09:02.998Z,51.94
2023-05-19T04:10:02.968Z,46.24
2023-05-19T04:11:03.021Z,43.48
2023-05-19T04:12:02.977Z,37.28
2023-05-19T04:13:02.980Z,37.70
2023-05-19T04:14:02.930Z,34.22
2023-05-19T04:15:02.971Z,31.16
2023-05-19T04:16:02.971Z,26.19
2023-05-19T04:17:02.930Z,25.00
2023-05-19T04:18:02.912Z,25.00
2023-05-19T04:19:02.946Z,27.71
2023-05-19T04:20:02.911Z,25.00
2023-05-19T04:21:02.904Z,24.89
2023-05-19T04:22:02.890Z,26.41
2023-05-19T04:23:02.875Z,25.00
2023-05-19T04:24:02.888Z,27.45
2023-05-19T04:25:02.860Z,25.00
2023-05-19T04:26:02.882Z,28.14
2023-05-19T04:27:02.866Z,26.35
2023-05-19T04:28:02.949Z,27.12
2023-05-19T04:29:02.954Z,25.38
2023-05-19T04:30:02.992Z,27.21
2023-05-19T04:31:03.057Z,29.46
2023-05-19T04:32:03.041Z,25.98
2023-05-19T04:33:03.096Z,26.68
2023-05-19T04:34:03.076Z,26.62
2023-05-19T04:35:03.115Z,30.54
2023-05-19T04:36:03.107Z,28.80
2023-05-19T04:37:03.130Z,31.13
2023-05-19T04:38:03.153Z,28.02
2023-05-19T04:39:03.143Z,29.82
2023-05-19T04:40:03.159Z,30.55
2023-05-19T04:41:03.200Z,30.80
2023-05-19T04:42:03.175Z,31.30
2023-05-19T04:43:03.156Z,31.93
2023-05-19T04:44:03.212Z,33.16
2023-05-19T04:45:03.211Z,35.52
2023-05-19T04:46:03.202Z,36.73
2023-05-19T04:47:03.312Z,34.67
2023-05-19T04:48:03.284Z,37.23
2023-05-19T04:49:03.252Z,40.09
2023-05-19T04:50:03.244Z,41.64
2023-05-19T04:51:03.210Z,44.18
2023-05-19T04:52:03.274Z,41.93
2023-05-19T04:53:03.228Z,44.02
2023-05-19T04:54:03.281Z,46.63
2023-05-19T04:55:03.285Z,46.89
2023-05-19T04:56:03.297Z,46.21
2023-05-19T04:57:03.274Z,46.23
2023-05-19T04:58:03.249Z,46.82
2023-05-19T04:59:03.267Z,47.18
2023-05-19T05:00:03.270Z,48.99
2023-05-19T05:01:03.282Z,47.33
2023-05-19T05:02:03.359Z,50.71
2023-05-19T05:03:03.418Z,50.97
2023-05-19T05:04:03.407Z,50.39
2023-05-19T05:05:03.282Z,51.61
2023-05-19T05:06:03.269Z,48.26
2023-05-19T05:07:03.326Z,51.23
2023-05-19T05:08:03.348Z,50.85
2023-05-19T05:09:03.389Z,50.43
2023-05-19T05:10:03.338Z,51.48
2023-05-19T05:11:03.408Z,52.33
2023-05-19T05:12:03.418Z,49.30
2023-05-19T05:13:03.427Z,53.08
2023-05-19T05:14:03.419Z,53.78
2023-05-19T05:15:03.379Z,55.89
2023-05-19T05:16:03.447Z,55.03
2023-05-19T05:17:03.443Z,53.15
2023-05-19T05:18:03.492Z,52.22
2023-05-19T05:19:03.585Z,56.21
2023-05-19T05:20:03.522Z,57.32
2023-05-19T05:21:03.568Z,55.92
2023-05-19T05:22:03.574Z,57.38
2023-05-19T05:23:03.658Z,56.73
2023-05-19T05:24:03.634Z,55.35
2023-05-19T05:25:03.685Z,57.80
2023-05-19T05:26:03.672Z,58.80
2023-05-19T05:27:03.716Z,59.43
2023-05-19T05:28:03.771Z,56.58
2023-05-19T05:29:03.779Z,61.03
2023-05-19T05:30:03.820Z,55.81
2023-05-19T05:31:03.802Z,57.46
2023-05-19T05:32:03.850Z,57.08
2023-05-19T05:33:03.919Z,57.50
2023-05-19T05:34:03.865Z,57.64
2023-05-19T05:35:03.947Z,56.58
2023-05-19T05:36:03.882Z,57.40
2023-05-19T05:37:03.938Z,55.08
2023-05-19T05:38:03.882Z,54.20
2023-05-19T05:39:03.915Z,51.79
2023-05-19T05:40:03.858Z,52.85
2023-05-19T05:41:03.901Z,55.28
2023-05-19T05:42:03.975Z,52.96
2023-05-19T05:43:03.969Z,54.81
2023-05-19T05:44:03.971Z,55.64
2023-05-19T05:45:04.000Z,55.34
2023-05-19T05:46:04.054Z,57.88
2023-05-19T05:47:04.022Z,57.03
2023-05-19T05:48:04.242Z,55.92
2023-05-19T05:49:04.072Z,56.12
2023-05-19T05:50:04.065Z,54.62
2023-05-19T05:51:04.085Z,56.77
2023-05-19T05:52:06.409Z,57.91
2023-05-19T05:53:04.062Z,56.73
2023-05-19T05:54:04.077Z,58.05
2023-05-19T05:55:04.097Z,60.14
2023-05-19T05:56:04.051Z,56.94
2023-05-19T05:57:04.038Z,60.51
2023-05-19T05:58:04.018Z,56.69
2023-05-19T05:59:04.010Z,58.47
2023-05-19T06:00:04.015Z,58.11
2023-05-19T06:01:03.996Z,58.21
2023-05-19T06:02:04.137Z,59.45
2023-05-19T06:03:04.110Z,58.78
2023-05-19T06:04:03.994Z,59.39
2023-05-19T06:05:04.009Z,57.27
2023-05-19T06:06:04.044Z,56.96
2023-05-19T06:07:04.591Z,59.15
2023-05-19T06:08:03.962Z,61.10
2023-05-19T06:09:03.935Z,60.59
2023-05-19T06:10:03.996Z,60.51
2023-05-19T06:11:03.912Z,59.94
2023-05-19T06:12:03.915Z,58.67
2023-05-19T06:13:03.932Z,58.33
2023-05-19T06:14:04.130Z,57.77
2023-05-19T06:15:03.882Z,57.99
2023-05-19T06:16:03.963Z,57.29
2023-05-19T06:17:03.900Z,58.07
2023-05-19T06:18:03.939Z,59.08
2023-05-19T06:19:03.928Z,58.46
2023-05-19T06:20:03.864Z,56.89
2023-05-19T06:21:03.828Z,56.82
2023-05-19T06:22:03.845Z,57.77
2023-05-19T06:23:03.808Z,59.65
2023-05-19T06:24:03.819Z,60.02
2023-05-19T06:25:03.865Z,61.56
2023-05-19T06:26:03.863Z,62.38
2023-05-19T06:27:03.810Z,62.93
2023-05-19T06:28:03.823Z,61.96
2023-05-19T06:29:03.788Z,62.67
2023-05-19T06:30:03.854Z,65.68
2023-05-19T06:31:03.860Z,65.23
2023-05-19T06:32:03.809Z,65.98
2023-05-19T06:33:03.868Z,66.06
2023-05-19T06:34:03.782Z,68.56
2023-05-19T06:35:03.728Z,65.42
2023-05-19T06:36:03.793Z,67.70
2023-05-19T06:37:03.735Z,67.04
2023-05-19T06:38:03.736Z,65.75
2023-05-19T06:39:03.752Z,68.22
2023-05-19T06:40:03.706Z,66.18
2023-05-19T06:41:03.754Z,65.32
2023-05-19T06:42:03.749Z,64.63
2023-05-19T06:43:03.694Z,66.46
2023-05-19T06:44:03.685Z,68.76
2023-05-19T06:45:03.694Z,67.34
2023-05-19T06:46:03.673Z,67.79
2023-05-19T06:47:03.747Z,68.61
2023-05-19T06:48:03.777Z,68.21
2023-05-19T06:49:03.802Z,67.40
2023-05-19T06:50:03.821Z,66.47
2023-05-19T06:51:03.882Z,66.89
2023-05-19T06:52:03.931Z,68.08
2023-05-19T06:53:03.941Z,68.85
2023-05-19T06:54:03.928Z,68.02
2023-05-19T06:55:03.965Z,68.75
2023-05-19T06:56:03.990Z,69.29
2023-05-19T06:57:04.010Z,69.87
2023-05-19T06:58:04.109Z,69.75
2023-05-19T06:59:04.080Z,69.46
2023-05-19T07:00:04.101Z,71.29
2023-05-19T07:01:04.130Z,69.45
2023-05-19T07:02:04.188Z,70.36
2023-05-19T07:03:04.292Z,71.55
2023-05-19T07:04:04.227Z,70.94
2023-05-19T07:05:04.239Z,73.21
2023-05-19T07:06:05.738Z,73.00
2023-05-19T07:07:04.245Z,74.93
2023-05-19T07:08:04.250Z,74.10
2023-05-19T07:09:04.211Z,74.06
2023-05-19T07:10:04.201Z,73.78
2023-05-19T07:11:04.226Z,71.18
2023-05-19T07:12:04.231Z,73.09
2023-05-19T07:13:04.181Z,73.75
2023-05-19T07:14:04.191Z,73.96
2023-05-19T07:15:04.165Z,73.75
2023-05-19T07:16:04.210Z,74.69
2023-05-19T07:17:04.149Z,73.36
2023-05-19T07:18:05.043Z,74.83
2023-05-19T07:19:05.068Z,75.53
2023-05-19T07:20:04.171Z,74.79
2023-05-19T07:21:04.157Z,75.65
2023-05-19T07:22:04.144Z,72.56
2023-05-19T07:23:04.142Z,70.41
2023-05-19T07:24:04.107Z,70.92
2023-05-19T07:25:04.099Z,72.27
2023-05-19T07:26:04.117Z,69.07
2023-05-19T07:27:04.125Z,67.82
2023-05-19T07:28:04.124Z,66.16
2023-05-19T07:29:04.066Z,66.76
2023-05-19T07:30:04.110Z,66.40
2023-05-19T07:31:04.059Z,65.12
2023-05-19T07:32:04.107Z,65.40
2023-05-19T07:33:04.120Z,65.20
2023-05-19T07:34:04.030Z,65.09
2023-05-19T07:35:04.074Z,64.04
2023-05-19T07:36:04.023Z,62.77
2023-05-19T07:37:04.018Z,63.30
2023-05-19T07:38:04.063Z,64.20
2023-05-19T07:39:04.019Z,62.91
2023-05-19T07:40:03.994Z,61.33
2023-05-19T07:41:03.974Z,61.08
2023-05-19T07:42:03.973Z,59.73
2023-05-19T07:43:04.005Z,59.21
2023-05-19T07:44:03.957Z,60.52
2023-05-19T07:45:04.001Z,57.53
2023-05-19T07:46:04.050Z,59.02
2023-05-19T07:47:03.992Z,59.05
2023-05-19T07:48:04.022Z,58.45
2023-05-19T07:49:03.915Z,57.98
2023-05-19T07:50:03.969Z,57.64
2023-05-19T07:51:03.983Z,57.31
2023-05-19T07:52:04.538Z,55.86
2023-05-19T07:53:03.925Z,56.62
2023-05-19T07:54:03.934Z,55.20
2023-05-19T07:55:03.902Z,55.26
2023-05-19T07:56:03.875Z,54.90
2023-05-19T07:57:03.905Z,50.60
2023-05-19T07:58:03.911Z,49.98
2023-05-19T07:59:03.963Z,53.56
2023-05-19T08:00:03.965Z,51.57
2023-05-19T08:01:04.017Z,49.95
2023-05-19T08:02:04.076Z,49.53
2023-05-19T08:03:04.111Z,49.41
2023-05-19T08:04:04.165Z,47.61
2023-05-19T08:05:04.071Z,49.30
2023-05-19T08:06:04.094Z,50.84
2023-05-19T08:07:04.077Z,51.73
2023-05-19T08:08:04.084Z,51.55
2023-05-19T08:09:04.083Z,51.62
2023-05-19T08:10:04.099Z,52.91
2023-05-19T08:11:04.109Z,49.93
2023-05-19T08:12:04.176Z,48.60
2023-05-19T08:13:04.185Z,45.60
2023-05-19T08:14:04.176Z,45.79
2023-05-19T08:15:04.206Z,46.50
2023-05-19T08:16:04.212Z,44.68
2023-05-19T08:17:04.194Z,43.03
2023-05-19T08:18:04.274Z,44.11
2023-05-19T08:19:04.240Z,41.47
2023-05-19T08:20:04.228Z,43.11
2023-05-19T08:21:04.254Z,44.58
2023-05-19T08:22:04.208Z,43.61
2023-05-19T08:23:04.271Z,41.19
2023-05-19T08:24:04.305Z,40.32
2023-05-19T08:25:04.310Z,41.35
2023-05-19T08:26:04.327Z,41.92
2023-05-19T08:27:04.283Z,40.19
2023-05-19T08:28:04.259Z,42.85
2023-05-19T08:29:04.273Z,41.95
2023-05-19T08:30:04.286Z,41.70
2023-05-19T08:31:04.384Z,37.65
2023-05-19T08:32:04.288Z,39.12
2023-05-19T08:33:04.336Z,37.48
2023-05-19T08:34:04.342Z,39.61
2023-05-19T08:35:04.274Z,34.73
2023-05-19T08:36:04.283Z,34.29
2023-05-19T08:37:04.299Z,36.84
2023-05-19T08:38:04.333Z,41.80
2023-05-19T08:39:04.346Z,38.06
2023-05-19T08:40:04.339Z,40.09
2023-05-19T08:41:04.348Z,38.69
2023-05-19T08:42:04.367Z,39.55
2023-05-19T08:43:04.404Z,38.24
2023-05-19T08:44:04.420Z,38.16
2023-05-19T08:45:04.461Z,38.63
2023-05-19T08:46:04.478Z,34.90
2023-05-19T08:47:04.731Z,40.12
2023-05-19T08:48:04.547Z,33.46
2023-05-19T08:49:04.537Z,33.89
2023-05-19T08:50:04.552Z,32.90
2023-05-19T08:51:04.554Z,35.23
2023-05-19T08:52:04.567Z,32.57
2023-05-19T08:53:04.609Z,35.00
2023-05-19T08:54:04.681Z,36.46
2023-05-19T08:55:04.712Z,29.28
2023-05-19T08:56:04.755Z,31.21
2023-05-19T08:57:04.838Z,31.48
2023-05-19T08:58:04.861Z,30.68
2023-05-19T08:59:04.949Z,35.13
2023-05-19T09:00:04.955Z,32.84
2023-05-19T09:01:05.036Z,34.46
2023-05-19T09:02:05.032Z,29.33
2023-05-19T09:04:05.130Z,31.71
2023-05-19T09:05:05.330Z,29.63
2023-05-19T09:06:05.255Z,29.60
2023-05-19T09:07:05.220Z,27.06
2023-05-19T09:08:05.214Z,27.54
2023-05-19T09:09:05.234Z,25.99
2023-05-19T09:10:05.295Z,31.14
2023-05-19T09:11:05.317Z,33.58
2023-05-19T09:12:05.381Z,28.38
2023-05-19T09:13:05.363Z,31.07
2023-05-19T09:14:05.396Z,30.23
2023-05-19T09:15:05.473Z,29.99
2023-05-19T09:16:05.562Z,36.98
2023-05-19T09:17:05.876Z,33.05
2023-05-19T09:18:05.687Z,32.53
2023-05-19T09:19:05.671Z,32.02
2023-05-19T09:20:05.742Z,27.15
2023-05-19T09:21:05.782Z,25.58
2023-05-19T09:22:05.786Z,28.16
2023-05-19T09:23:05.769Z,26.45
2023-05-19T09:24:05.757Z,26.80
2023-05-19T09:25:05.836Z,27.63
2023-05-19T09:26:05.775Z,33.39
2023-05-19T09:27:05.769Z,31.03
2023-05-19T09:28:05.756Z,31.04
2023-05-19T09:29:05.775Z,32.28
2023-05-19T09:30:05.787Z,30.93
2023-05-19T09:31:05.796Z,26.85
2023-05-19T09:32:05.922Z,30.85
2023-05-19T09:33:05.843Z,29.27
2023-05-19T09:34:05.777Z,26.00
2023-05-19T09:35:05.894Z,29.13
2023-05-19T09:36:05.780Z,28.55
2023-05-19T09:37:05.835Z,27.47
2023-05-19T09:38:05.889Z,26.99
2023-05-19T09:39:05.949Z,32.67
2023-05-19T09:40:06.025Z,30.44
2023-05-19T09:41:06.050Z,30.99
2023-05-19T09:42:06.090Z,28.08
2023-05-19T09:43:06.181Z,26.96
2023-05-19T09:44:06.239Z,28.54
2023-05-19T09:45:06.324Z,29.02
2023-05-19T09:46:06.554Z,29.34
2023-05-19T09:47:06.434Z,31.56
2023-05-19T09:48:06.551Z,31.95
2023-05-19T09:49:06.530Z,33.30
2023-05-19T09:50:06.594Z,32.34
2023-05-19T09:51:06.643Z,30.20
2023-05-19T09:52:06.735Z,30.05
2023-05-19T09:53:06.844Z,34.38
2023-05-19T09:54:06.864Z,33.45
2023-05-19T09:55:06.925Z,35.33
2023-05-19T09:56:06.873Z,31.71
2023-05-19T09:57:08.307Z,31.00
2023-05-19T09:58:06.957Z,31.49
2023-05-19T09:59:06.964Z,31.32
2023-05-19T10:00:07.020Z,34.00
2023-05-19T10:01:07.109Z,36.04
2023-05-19T10:02:07.074Z,38.11
2023-05-19T10:03:07.133Z,36.16
2023-05-19T10:04:07.197Z,30.63
2023-05-19T10:05:07.225Z,32.80
2023-05-19T10:06:07.256Z,34.43
2023-05-19T10:07:07.330Z,36.79
2023-05-19T10:08:07.398Z,36.35
2023-05-19T10:09:07.375Z,33.87
2023-05-19T10:10:07.435Z,32.66
2023-05-19T10:11:07.486Z,35.72
2023-05-19T10:12:07.484Z,28.74
2023-05-19T10:13:07.587Z,30.14
2023-05-19T10:14:07.669Z,32.53
2023-05-19T10:15:07.721Z,30.98
2023-05-19T10:16:07.802Z,29.74
2023-05-19T10:17:07.843Z,31.70
2023-05-19T10:18:07.845Z,29.96
2023-05-19T10:19:07.868Z,29.81
2023-05-19T10:20:07.955Z,29.92
2023-05-19T10:21:07.988Z,30.21
2023-05-19T10:22:07.999Z,31.32
2023-05-19T10:23:08.074Z,28.77
2023-05-19T10:24:08.089Z,32.44
2023-05-19T10:25:08.146Z,30.89
2023-05-19T10:26:08.203Z,31.26
2023-05-19T10:27:08.244Z,29.70
2023-05-19T10:28:08.260Z,25.00
2023-05-19T10:29:08.339Z,27.89
2023-05-19T10:30:10.798Z,30.18
2023-05-19T10:31:08.342Z,34.01
2023-05-19T10:32:08.457Z,30.54
2023-05-19T10:33:08.397Z,33.08
2023-05-19T10:34:08.357Z,31.56
2023-05-19T10:35:08.359Z,26.79
2023-05-19T10:36:08.369Z,28.42
2023-05-19T10:37:08.314Z,26.20
2023-05-19T10:38:08.334Z,27.48
2023-05-19T10:39:08.379Z,27.28
2023-05-19T10:40:08.315Z,27.63
2023-05-19T10:41:08.306Z,26.09
2023-05-19T10:42:08.308Z,30.91
2023-05-19T10:43:08.292Z,31.70
2023-05-19T10:44:08.261Z,30.47
2023-05-19T10:45:08.298Z,27.14
2023-05-19T10:46:08.266Z,29.00
2023-05-19T10:47:08.306Z,30.72
2023-05-19T10:48:08.311Z,31.95
2023-05-19T10:49:08.361Z,28.75
2023-05-19T10:50:08.254Z,29.37
2023-05-19T10:51:08.217Z,29.78
2023-05-19T10:52:08.227Z,27.89
2023-05-19T10:53:08.222Z,31.44
2023-05-19T10:54:08.276Z,26.37
2023-05-19T10:55:08.243Z,30.16
2023-05-19T10:56:08.188Z,29.48
2023-05-19T10:57:08.215Z,31.32
2023-05-19T10:58:08.151Z,36.30
2023-05-19T10:59:08.154Z,32.75
2023-05-19T11:00:08.160Z,36.85
2023-05-19T11:01:08.194Z,42.57
2023-05-19T11:02:08.370Z,40.98
2023-05-19T11:03:08.274Z,39.38
2023-05-19T11:04:08.298Z,43.43
2023-05-19T11:05:08.130Z,43.97
2023-05-19T11:06:08.094Z,45.40
2023-05-19T11:07:08.191Z,48.60
2023-05-19T11:08:08.223Z,49.21
2023-05-19T11:09:08.311Z,52.29
2023-05-19T11:10:08.340Z,52.20
2023-05-19T11:11:08.420Z,50.05
2023-05-19T11:12:08.491Z,59.01
2023-05-19T11:13:08.567Z,55.81
2023-05-19T11:14:08.706Z,60.02
2023-05-19T11:15:08.735Z,59.60
2023-05-19T11:16:08.675Z,61.95
2023-05-19T11:17:08.757Z,61.10
2023-05-19T11:18:08.752Z,64.49
2023-05-19T11:19:08.781Z,62.95
2023-05-19T11:20:08.859Z,69.57
2023-05-19T11:21:08.938Z,68.00
2023-05-19T11:22:08.924Z,68.98
2023-05-19T11:23:09.207Z,70.34
2023-05-19T11:24:09.022Z,71.51
2023-05-19T11:25:09.036Z,71.30
2023-05-19T11:26:09.125Z,72.11
2023-05-19T11:27:09.137Z,73.71
2023-05-19T11:28:09.130Z,73.42
2023-05-19T11:29:09.200Z,76.68
2023-05-19T11:30:09.243Z,75.38
2023-05-19T11:31:09.254Z,78.34
2023-05-19T11:32:09.281Z,80.12
2023-05-19T11:33:09.353Z,78.39
2023-05-19T11:34:09.455Z,76.11
2023-05-19T11:35:09.448Z,79.49
2023-05-19T11:36:09.445Z,79.95
2023-05-19T11:37:09.510Z,81.23
2023-05-19T11:38:09.566Z,80.65
2023-05-19T11:39:09.583Z,81.17
2023-05-19T11:40:09.642Z,80.35
2023-05-19T11:41:09.643Z,80.54
2023-05-19T11:42:09.656Z,84.63
2023-05-19T11:43:09.730Z,84.27
2023-05-19T11:44:09.765Z,83.58
2023-05-19T11:45:09.760Z,83.38
2023-05-19T11:46:09.946Z,85.28
2023-05-19T11:47:09.848Z,83.95
2023-05-19T11:48:09.907Z,83.03
2023-05-19T11:49:09.966Z,85.63
2023-05-19T11:50:10.012Z,84.59
2023-05-19T11:51:10.069Z,85.76
2023-05-19T11:52:10.110Z,83.03
2023-05-19T11:53:10.158Z,83.32
2023-05-19T11:54:10.170Z,86.53
2023-05-19T11:55:10.262Z,85.17
2023-05-19T11:56:10.290Z,87.35
2023-05-19T11:57:10.361Z,88.71
2023-05-19T11:58:10.364Z,90.49
2023-05-19T11:59:10.433Z,86.76
2023-05-19T12:00:10.444Z,85.53
2023-05-19T12:01:10.441Z,90.54
2023-05-19T12:02:10.524Z,86.77
2023-05-19T12:03:10.855Z,90.28
2023-05-19T12:04:10.608Z,87.53
2023-05-19T12:05:10.670Z,90.58
2023-05-19T12:06:10.629Z,89.04
2023-05-19T12:07:10.686Z,89.70
2023-05-19T12:08:10.684Z,91.79
2023-05-19T12:09:10.692Z,92.70
2023-05-19T12:10:10.846Z,94.14
2023-05-19T12:11:10.798Z,90.50
2023-05-19T12:12:10.816Z,92.46
2023-05-19T12:13:11.122Z,91.83
2023-05-19T12:14:10.878Z,92.00
2023-05-19T12:15:10.964Z,94.03
2023-05-19T12:16:11.048Z,91.72
2023-05-19T12:17:11.020Z,93.69
2023-05-19T12:18:11.060Z,95.41
2023-05-19T12:19:11.001Z,96.06
2023-05-19T12:20:11.036Z,94.12
2023-05-19T12:21:11.099Z,96.54
2023-05-19T12:22:11.107Z,93.17
2023-05-19T12:23:11.145Z,94.71
2023-05-19T12:24:11.154Z,94.77
2023-05-19T12:25:11.272Z,95.71
2023-05-19T12:26:11.269Z,97.58
2023-05-19T12:27:11.328Z,94.38
2023-05-19T12:28:11.338Z,97.16
2023-05-19T12:29:11.342Z,98.05
2023-05-19T12:30:11.398Z,94.77
2023-05-19T12:31:11.468Z,96.65
2023-05-19T12:32:11.447Z,97.70
2023-05-19T12:33:11.575Z,96.32
2023-05-19T12:34:11.528Z,97.99
2023-05-19T12:35:11.538Z,96.23
2023-05-19T12:36:11.643Z,98.55
2023-05-19T12:37:11.689Z,95.57
2023-05-19T12:38:11.756Z,99.31
2023-05-19T12:39:11.793Z,99.24
2023-05-19T12:40:11.821Z,99.03
2023-05-19T12:41:12.043Z,95.73
2023-05-19T12:42:11.910Z,98.46
2023-05-19T12:43:11.998Z,98.04
2023-05-19T12:44:12.002Z,103.21
2023-05-19T12:45:12.008Z,99.13
2023-05-19T12:46:12.120Z,99.48
2023-05-19T12:47:12.067Z,97.65
2023-05-19T12:48:12.286Z,97.86
2023-05-19T12:49:12.159Z,99.66
2023-05-19T12:50:12.190Z,99.22
2023-05-19T12:51:12.230Z,98.82
2023-05-19T12:52:13.192Z,98.69
2023-05-19T12:53:12.293Z,97.84
2023-05-19T12:54:13.211Z,103.19